createdAt,value
2018-11-22T12:16:56.281Z,99.90
2018-11-22T12:19:23.826Z,99.90
2018-11-22T12:21:51.429Z,99.90
2018-11-22T12:24:19.001Z,99.90
2018-11-22T12:26:46.549Z,99.90
2018-11-22T12:29:14.098Z,99.90
2018-11-22T12:31:41.647Z,99.90
2018-11-22T12:34:16.189Z,99.90
2018-11-22T12:36:49.325Z,99.90
2018-11-22T12:39:16.883Z,99.90
2018-11-22T12:41:44.520Z,99.90
2018-11-22T12:44:12.118Z,99.90
2018-11-22T12:46:39.964Z,99.90
2018-11-22T12:49:07.556Z,99.90
2018-11-22T12:51:35.164Z,99.90
2018-11-22T12:54:02.743Z,99.90
2018-11-22T12:56:30.328Z,99.90
2018-11-22T12:58:57.950Z,99.90
2018-11-22T13:01:25.523Z,99.90
2018-11-22T13:03:53.105Z,99.90
2018-11-22T13:06:20.685Z,99.90
2018-11-22T13:08:48.253Z,99.90
2018-11-22T13:11:15.838Z,99.90
2018-11-22T13:13:43.421Z,99.90
2018-11-22T13:16:11.006Z,99.90
2018-11-22T13:18:38.577Z,99.90
2018-11-22T13:21:06.170Z,99.90
2018-11-22T13:23:33.729Z,99.90
2018-11-22T13:26:01.289Z,99.90
2018-11-22T13:28:28.901Z,99.90
2018-11-22T13:30:58.719Z,99.90
2018-11-22T13:33:26.318Z,99.90
2018-11-22T13:35:53.986Z,99.90
2018-11-22T13:38:21.574Z,99.90
2018-11-22T13:40:49.182Z,99.90
2018-11-22T13:43:16.745Z,99.90
2018-11-22T13:45:44.470Z,99.90
2018-11-22T13:48:12.011Z,99.90
2018-11-22T13:50:42.140Z,99.90
2018-11-22T13:53:10.656Z,99.90
2018-11-22T13:55:38.213Z,99.90
2018-11-22T13:58:05.818Z,99.90
2018-11-22T14:00:34.104Z,99.90
2018-11-22T14:03:04.101Z,99.90
2018-11-22T14:05:31.640Z,99.90
2018-11-22T14:07:59.344Z,99.90
2018-11-22T14:10:26.906Z,99.90
2018-11-22T14:12:54.440Z,99.60
2018-11-22T14:15:25.519Z,98.10
2018-11-22T14:17:54.617Z,99.00
2018-11-22T14:20:24.656Z,98.00
2018-11-22T14:22:52.265Z,97.80
2018-11-22T14:25:20.001Z,98.00
2018-11-22T14:27:48.488Z,97.30
2018-11-22T14:30:19.579Z,96.90
2018-11-22T14:32:47.997Z,97.10
2018-11-22T14:35:16.675Z,96.50
2018-11-22T14:37:45.214Z,96.50
2018-11-22T14:40:14.581Z,96.70
2018-11-22T14:42:42.442Z,96.60
2018-11-22T14:45:11.117Z,96.50
2018-11-22T14:47:38.782Z,96.10
2018-11-22T14:50:09.505Z,96.60
2018-11-22T14:52:37.182Z,96.40
2018-11-22T14:55:06.382Z,96.90
2018-11-22T14:57:34.631Z,96.90
2018-11-22T15:00:02.527Z,97.70
2018-11-22T15:02:30.082Z,97.80
2018-11-22T15:04:57.617Z,97.90
2018-11-22T15:07:28.755Z,98.00
2018-11-22T15:09:53.766Z,98.90
2018-11-22T15:12:21.321Z,99.20
2018-11-22T15:14:48.895Z,99.80
2018-11-22T15:17:16.449Z,99.90
2018-11-22T15:19:43.990Z,99.90
2018-11-22T15:22:11.528Z,99.90
2018-11-22T15:24:40.097Z,99.90
2018-11-22T15:27:08.207Z,99.90
2018-11-22T15:29:35.749Z,99.90
2018-11-22T15:32:03.307Z,99.90
2018-11-22T15:34:30.838Z,99.90
2018-11-22T15:36:58.380Z,99.90
2018-11-22T15:39:25.918Z,99.90
2018-11-22T15:41:53.498Z,99.90
2018-11-22T15:44:21.042Z,99.90
2018-11-22T15:46:48.602Z,99.90
2018-11-22T15:49:16.184Z,99.90
2018-11-22T15:51:43.696Z,99.90
2018-11-22T15:54:11.293Z,99.90
2018-11-22T15:56:38.863Z,99.90
2018-11-22T15:59:06.406Z,99.90
2018-11-22T16:01:34.974Z,99.90
2018-11-22T16:04:02.546Z,99.90
2018-11-22T16:06:30.090Z,99.90
2018-11-22T16:08:57.646Z,99.90
2018-11-22T16:11:25.184Z,99.90
2018-11-22T16:13:52.701Z,99.90
2018-11-22T16:16:20.241Z,99.90
2018-11-22T16:18:47.774Z,99.90
2018-11-22T16:21:15.309Z,99.90
2018-11-22T16:23:42.875Z,99.90
2018-11-22T16:26:10.426Z,99.90
2018-11-22T16:28:37.965Z,99.90
2018-11-22T16:31:05.818Z,99.90
2018-11-22T16:33:33.381Z,99.90
2018-11-22T16:36:00.969Z,99.90
2018-11-22T16:38:28.566Z,99.90
2018-11-22T16:40:56.101Z,99.90
2018-11-22T16:43:23.657Z,99.90
2018-11-22T16:45:51.228Z,99.90
2018-11-22T16:48:18.785Z,99.90
2018-11-22T16:50:46.352Z,99.90
2018-11-22T16:53:13.933Z,99.90
2018-11-22T16:55:41.514Z,99.90
2018-11-22T16:58:09.111Z,99.90
2018-11-22T17:00:37.937Z,99.90
2018-11-22T17:03:09.275Z,99.90
2018-11-22T17:05:37.126Z,99.90
2018-11-22T17:08:06.142Z,99.90
2018-11-22T17:10:34.073Z,99.90
2018-11-22T17:13:02.572Z,99.90
2018-11-22T17:15:31.581Z,99.90
2018-11-22T17:17:59.654Z,99.90
2018-11-22T17:20:28.301Z,99.90
2018-11-22T17:22:55.876Z,99.90
2018-11-22T17:25:24.856Z,99.90
2018-11-22T17:27:56.753Z,99.90
2018-11-22T17:30:26.030Z,99.90
2018-11-22T17:32:54.569Z,99.90
2018-11-22T17:35:23.400Z,99.90
2018-11-22T17:37:51.661Z,99.90
2018-11-22T17:40:20.969Z,99.90
2018-11-22T17:42:48.554Z,99.90
2018-11-22T17:45:32.471Z,99.90
2018-11-22T17:48:00.281Z,99.90
2018-11-22T17:50:30.435Z,99.90
2018-11-22T17:52:58.133Z,99.90
2018-11-22T17:55:26.718Z,99.90
2018-11-22T17:57:54.235Z,99.90
2018-11-22T18:00:25.302Z,99.90
2018-11-22T18:02:53.988Z,99.90
2018-11-22T18:05:27.046Z,99.90
2018-11-22T18:07:49.153Z,99.90
2018-11-22T18:10:18.328Z,99.90
2018-11-22T18:12:46.671Z,99.90
2018-11-22T18:15:15.489Z,99.90
2018-11-22T18:17:44.008Z,99.90
2018-11-22T18:20:15.104Z,99.90
2018-11-22T18:22:42.969Z,99.90
2018-11-22T18:25:12.981Z,99.90
2018-11-22T18:27:40.534Z,99.90
2018-11-22T18:30:12.218Z,99.90
2018-11-22T18:32:39.795Z,99.90
2018-11-22T18:35:08.785Z,99.90
2018-11-22T18:37:36.434Z,99.90
2018-11-22T18:40:04.814Z,99.90
2018-11-22T18:42:32.735Z,99.90
2018-11-22T18:45:00.336Z,99.90
2018-11-22T18:47:27.909Z,99.90
2018-11-22T18:49:55.452Z,99.90
2018-11-22T18:52:23.140Z,99.90
2018-11-22T18:54:50.706Z,99.90
2018-11-22T18:57:18.554Z,99.90
2018-11-22T18:59:46.101Z,99.90
2018-11-22T19:02:14.296Z,99.90
2018-11-22T19:04:41.877Z,99.90
2018-11-22T19:07:09.445Z,99.90
2018-11-22T19:09:37.157Z,99.90
2018-11-22T19:12:05.425Z,99.90
2018-11-22T19:14:32.962Z,99.90
2018-11-22T19:17:00.517Z,99.90
2018-11-22T19:19:28.069Z,99.90
2018-11-22T19:21:55.609Z,99.90
2018-11-22T19:24:23.163Z,99.90
2018-11-22T19:26:50.717Z,99.90
2018-11-22T19:29:18.262Z,99.90
2018-11-22T19:31:45.823Z,99.90
2018-11-22T19:34:13.375Z,99.90
2018-11-22T19:36:40.921Z,99.90
2018-11-22T19:39:08.490Z,99.90
2018-11-22T19:41:36.352Z,99.90
2018-11-22T19:44:03.968Z,99.90
2018-11-22T19:46:31.577Z,99.90
2018-11-22T19:48:59.140Z,99.90
2018-11-22T19:51:26.721Z,99.90
2018-11-22T19:53:54.250Z,99.90
2018-11-22T19:56:22.712Z,99.90
2018-11-22T19:58:50.261Z,99.90
2018-11-22T20:01:18.798Z,99.90
2018-11-22T20:03:46.357Z,99.90
2018-11-22T20:06:14.003Z,99.90
2018-11-22T20:08:41.558Z,99.90
2018-11-22T20:11:09.680Z,99.90
2018-11-22T20:13:37.212Z,99.90
2018-11-22T20:16:04.806Z,99.90
2018-11-22T20:18:32.434Z,99.90
2018-11-22T20:20:59.978Z,99.90
2018-11-22T20:23:27.544Z,99.90
2018-11-22T20:25:55.086Z,99.90
2018-11-22T20:28:23.612Z,99.90
2018-11-22T20:30:51.201Z,99.90
2018-11-22T20:33:18.731Z,99.90
2018-11-22T20:35:46.266Z,99.90
2018-11-22T20:38:13.826Z,99.90
2018-11-22T20:40:41.369Z,99.90
2018-11-22T20:43:09.472Z,99.90
2018-11-22T20:45:40.748Z,99.90
2018-11-22T20:48:05.353Z,99.90
2018-11-22T20:50:33.482Z,99.90
2018-11-22T20:53:01.721Z,99.90
2018-11-22T20:55:30.754Z,99.90
2018-11-22T20:57:59.630Z,99.90
2018-11-22T21:00:28.529Z,99.90
2018-11-22T21:02:56.153Z,99.90
2018-11-22T21:05:24.357Z,99.90
2018-11-22T21:07:51.931Z,99.90
2018-11-22T21:10:21.861Z,99.90
2018-11-22T21:12:49.524Z,99.90
2018-11-22T21:15:19.394Z,99.90
2018-11-22T21:17:47.834Z,99.90
2018-11-22T21:20:16.600Z,99.90
2018-11-22T21:22:44.189Z,99.90
2018-11-22T21:25:13.165Z,99.90
2018-11-22T21:27:40.761Z,99.90
2018-11-22T21:30:17.635Z,99.90
2018-11-22T21:32:46.185Z,99.90
2018-11-22T21:35:14.158Z,99.90
2018-11-22T21:37:42.255Z,99.90
2018-11-22T21:40:10.445Z,99.90
2018-11-22T21:42:38.309Z,99.90
2018-11-22T21:45:09.721Z,99.90
2018-11-22T21:47:37.261Z,99.90
2018-11-22T21:50:05.629Z,99.90
2018-11-22T21:52:33.993Z,99.90
2018-11-22T21:55:01.532Z,99.90
2018-11-22T21:57:29.080Z,99.90
2018-11-22T21:59:56.625Z,99.90
2018-11-22T22:02:24.241Z,99.90
2018-11-22T22:04:51.883Z,99.90
2018-11-22T22:07:19.436Z,99.90
2018-11-22T22:09:47.002Z,99.90
2018-11-22T22:12:14.566Z,99.90
2018-11-22T22:14:42.121Z,99.90
2018-11-22T22:17:09.799Z,99.90
2018-11-22T22:19:37.365Z,99.90
2018-11-22T22:22:04.938Z,99.90
2018-11-22T22:24:32.607Z,99.90
2018-11-22T22:27:00.149Z,99.90
2018-11-22T22:29:27.693Z,99.90
2018-11-22T22:31:55.261Z,99.90
2018-11-22T22:34:22.942Z,99.90
2018-11-22T22:36:50.471Z,99.90
2018-11-22T22:39:18.046Z,99.90
2018-11-22T22:41:45.688Z,99.90
2018-11-22T22:44:13.827Z,99.90
2018-11-22T22:46:41.404Z,99.90
2018-11-22T22:49:09.468Z,99.90
2018-11-22T22:51:37.679Z,99.90
2018-11-22T22:54:05.531Z,99.90
2018-11-22T22:56:33.068Z,99.90
2018-11-22T22:59:01.335Z,99.90
2018-11-22T23:01:29.229Z,99.90
2018-11-22T23:03:56.820Z,99.90
2018-11-22T23:06:24.385Z,99.90
2018-11-22T23:08:51.908Z,99.90
2018-11-22T23:11:19.469Z,99.90
2018-11-22T23:13:47.025Z,99.90
2018-11-22T23:16:15.145Z,99.90
2018-11-22T23:18:42.804Z,99.90
2018-11-22T23:21:10.363Z,99.90
2018-11-22T23:23:38.956Z,99.90
2018-11-22T23:26:06.508Z,99.90
2018-11-22T23:28:35.036Z,99.90
2018-11-22T23:31:02.639Z,99.90
2018-11-22T23:33:30.223Z,99.90
2018-11-22T23:35:57.791Z,99.90
2018-11-22T23:38:25.337Z,99.90
2018-11-22T23:40:52.933Z,99.90
2018-11-22T23:43:21.202Z,99.90
2018-11-22T23:45:48.913Z,99.90
2018-11-22T23:48:19.549Z,99.90
2018-11-22T23:50:47.155Z,99.90
2018-11-22T23:53:14.757Z,99.90
2018-11-22T23:55:42.322Z,99.90
2018-11-22T23:58:09.878Z,99.90
